Yellowstone Airport
KWYS : now visible

Airfield :











YOU CAN JOIN US ON...

 
LOGIN :

Register | Disclaimer

   EN    FR    IT 

 









Legend :    VFR   Marginal VFR   IFR   Intensive IFR   Very Intensive IFR
Visi :
Ceiling :
>= 8 km
>= 3000ft
5 to 8 km
1000 to 3000 ft
1500m to 5 km
500 to 1000 ft
800 to 1500m
200 to 500 ft
< 800m
< 200 ft
Symbols :   Thunderstorms  Fog  Heavy snow  Heavy precipitations  Wind > 20 kt






- Airport Elevation : 6649 ft


KWYS - Yellowstone

CURRENT METAR :
  • 140710Z AUTO 00000KT 10SM CLR 06/06 A3009 RMK AO2

EXPIRED METARs :
  • 140645Z AUTO 00000KT 10SM SCT120 08/08 A3009 RMK AO2
  • 140550Z AUTO 00000KT 10SM OVC075 10/08 A3008 RMK AO2
  • 140530Z AUTO 00000KT 10SM SCT075 BKN100 OVC120 10/08 A3008 RMK AO2
  • 140510Z AUTO 00000KT 10SM BKN100 BKN120 11/09 A3008 RMK AO2
  • 140450Z AUTO 00000KT 10SM FEW042 FEW060 BKN110 11/09 A3008 RMK AO2
  • 140430Z AUTO 16004KT 10SM FEW049 SCT070 BKN080 12/09 A3007 RMK AO2

TAF KWYS
Valid from the 14 at 06:00 until the 15 at 06:00 UTC


140533Z 1406/1506 VRB04KT P6SM FEW090 SCT120
FM142000 24008KT P6SM SKC
KZLC FIR / North America



MET'MAP, your aeronautical weather chart ! - Copyright ORBIFLY December 2007 - Disclaimer

ORBIFLY MET'MAP TEAM :

Programming & Development : Alexandra Zaïnal
Concept & original design : Baudouin d'Aumeries
Assistance for programming : Marc-Olivier Méhu
Technical & hardware support : Manuel Goepfert

Contact : metmap@orbifly.com




SOURCES & CREDITS :

   NOAA       Earth
Advisory